sensor_id;sensor_type;location;lat;lon;timestamp;P1;durP1;ratioP1;P2;durP2;ratioP2
31378;SDS011;61664;48.112;11.662;2022-09-13T00:00:59;1.55;;;1.45;;
31378;SDS011;61664;48.112;11.662;2022-09-13T00:03:29;1.80;;;1.70;;
31378;SDS011;61664;48.112;11.662;2022-09-13T00:05:57;1.73;;;1.63;;
31378;SDS011;61664;48.112;11.662;2022-09-13T00:08:35;1.50;;;1.40;;
31378;SDS011;61664;48.112;11.662;2022-09-13T00:11:02;1.55;;;1.45;;
31378;SDS011;61664;48.112;11.662;2022-09-13T00:13:30;4.60;;;1.48;;
31378;SDS011;61664;48.112;11.662;2022-09-13T00:15:56;1.80;;;1.20;;
31378;SDS011;61664;48.112;11.662;2022-09-13T00:18:32;2.25;;;1.48;;
31378;SDS011;61664;48.112;11.662;2022-09-13T00:21:02;1.38;;;1.13;;
31378;SDS011;61664;48.112;11.662;2022-09-13T00:23:44;1.30;;;1.20;;
31378;SDS011;61664;48.112;11.662;2022-09-13T00:26:15;0.95;;;0.95;;
31378;SDS011;61664;48.112;11.662;2022-09-13T00:28:53;3.42;;;1.40;;
31378;SDS011;61664;48.112;11.662;2022-09-13T00:31:23;1.25;;;1.20;;
31378;SDS011;61664;48.112;11.662;2022-09-13T00:33:52;2.45;;;1.38;;
31378;SDS011;61664;48.112;11.662;2022-09-13T00:36:20;1.55;;;1.45;;
31378;SDS011;61664;48.112;11.662;2022-09-13T00:38:47;1.08;;;1.02;;
31378;SDS011;61664;48.112;11.662;2022-09-13T00:41:15;1.17;;;1.10;;
31378;SDS011;61664;48.112;11.662;2022-09-13T00:43:46;1.38;;;1.27;;
31378;SDS011;61664;48.112;11.662;2022-09-13T00:51:37;0.90;;;0.90;;
31378;SDS011;61664;48.112;11.662;2022-09-13T00:54:08;3.13;;;1.10;;
31378;SDS011;61664;48.112;11.662;2022-09-13T00:56:40;1.00;;;1.00;;
31378;SDS011;61664;48.112;11.662;2022-09-13T00:59:14;1.63;;;1.52;;
31378;SDS011;61664;48.112;11.662;2022-09-13T01:02:00;1.02;;;1.02;;
31378;SDS011;61664;48.112;11.662;2022-09-13T01:04:30;0.90;;;0.90;;
31378;SDS011;61664;48.112;11.662;2022-09-13T01:07:03;0.82;;;0.82;;
31378;SDS011;61664;48.112;11.662;2022-09-13T01:09:36;0.93;;;0.93;;
31378;SDS011;61664;48.112;11.662;2022-09-13T01:12:22;0.80;;;0.80;;
31378;SDS011;61664;48.112;11.662;2022-09-13T01:15:09;0.85;;;0.85;;
31378;SDS011;61664;48.112;11.662;2022-09-13T01:17:36;1.80;;;1.70;;
31378;SDS011;61664;48.112;11.662;2022-09-13T01:20:05;0.68;;;0.68;;
31378;SDS011;61664;48.112;11.662;2022-09-13T01:43:09;0.70;;;0.70;;
31378;SDS011;61664;48.112;11.662;2022-09-13T01:46:45;0.80;;;0.80;;
31378;SDS011;61664;48.112;11.662;2022-09-13T01:52:04;1.48;;;0.90;;
31378;SDS011;61664;48.112;11.662;2022-09-13T02:01:20;0.80;;;0.80;;
31378;SDS011;61664;48.112;11.662;2022-09-13T02:04:09;0.77;;;0.77;;
31378;SDS011;61664;48.112;11.662;2022-09-13T02:06:45;0.80;;;0.80;;
31378;SDS011;61664;48.112;11.662;2022-09-13T02:09:23;0.70;;;0.70;;
31378;SDS011;61664;48.112;11.662;2022-09-13T02:11:55;0.77;;;0.77;;
31378;SDS011;61664;48.112;11.662;2022-09-13T02:14:36;0.65;;;0.65;;
31378;SDS011;61664;48.112;11.662;2022-09-13T02:17:08;0.70;;;0.70;;
31378;SDS011;61664;48.112;11.662;2022-09-13T02:20:09;0.90;;;0.90;;
31378;SDS011;61664;48.112;11.662;2022-09-13T02:23:01;0.70;;;0.70;;
31378;SDS011;61664;48.112;11.662;2022-09-13T02:25:39;0.60;;;0.60;;
31378;SDS011;61664;48.112;11.662;2022-09-13T02:28:10;0.90;;;0.90;;
31378;SDS011;61664;48.112;11.662;2022-09-13T02:30:43;0.70;;;0.70;;
31378;SDS011;61664;48.112;11.662;2022-09-13T02:33:18;0.70;;;0.70;;
31378;SDS011;61664;48.112;11.662;2022-09-13T02:36:21;1.35;;;0.68;;
31378;SDS011;61664;48.112;11.662;2022-09-13T02:39:05;0.80;;;0.80;;
31378;SDS011;61664;48.112;11.662;2022-09-13T02:44:53;0.68;;;0.68;;
31378;SDS011;61664;48.112;11.662;2022-09-13T02:50:18;0.65;;;0.65;;
31378;SDS011;61664;48.112;11.662;2022-09-13T02:58:32;4.47;;;2.35;;
31378;SDS011;61664;48.112;11.662;2022-09-13T03:01:05;1.10;;;0.77;;
31378;SDS011;61664;48.112;11.662;2022-09-13T03:03:32;1.15;;;0.60;;
31378;SDS011;61664;48.112;11.662;2022-09-13T03:05:59;0.95;;;0.80;;
31378;SDS011;61664;48.112;11.662;2022-09-13T03:08:26;0.57;;;0.57;;
31378;SDS011;61664;48.112;11.662;2022-09-13T03:17:04;0.57;;;0.57;;
31378;SDS011;61664;48.112;11.662;2022-09-13T03:26:40;0.55;;;0.52;;
31378;SDS011;61664;48.112;11.662;2022-09-13T03:29:25;0.63;;;0.63;;
31378;SDS011;61664;48.112;11.662;2022-09-13T03:40:47;0.70;;;0.70;;
31378;SDS011;61664;48.112;11.662;2022-09-13T03:43:30;0.82;;;0.82;;
31378;SDS011;61664;48.112;11.662;2022-09-13T03:46:23;0.95;;;0.95;;
31378;SDS011;61664;48.112;11.662;2022-09-13T03:49:04;0.80;;;0.80;;
31378;SDS011;61664;48.112;11.662;2022-09-13T03:51:37;0.80;;;0.80;;
31378;SDS011;61664;48.112;11.662;2022-09-13T03:54:07;1.75;;;0.90;;
31378;SDS011;61664;48.112;11.662;2022-09-13T03:56:43;0.80;;;0.80;;
31378;SDS011;61664;48.112;11.662;2022-09-13T03:59:33;1.88;;;0.93;;
31378;SDS011;61664;48.112;11.662;2022-09-13T04:02:04;0.90;;;0.83;;
31378;SDS011;61664;48.112;11.662;2022-09-13T04:04:40;0.63;;;0.63;;
31378;SDS011;61664;48.112;11.662;2022-09-13T04:07:10;0.85;;;0.60;;
31378;SDS011;61664;48.112;11.662;2022-09-13T04:09:41;1.15;;;0.90;;
31378;SDS011;61664;48.112;11.662;2022-09-13T04:12:08;0.80;;;0.80;;
31378;SDS011;61664;48.112;11.662;2022-09-13T04:14:35;0.80;;;0.80;;
31378;SDS011;61664;48.112;11.662;2022-09-13T04:17:02;1.00;;;0.75;;
31378;SDS011;61664;48.112;11.662;2022-09-13T04:19:29;0.47;;;0.47;;
31378;SDS011;61664;48.112;11.662;2022-09-13T04:21:56;2.30;;;1.38;;
31378;SDS011;61664;48.112;11.662;2022-09-13T04:24:27;1.00;;;1.00;;
31378;SDS011;61664;48.112;11.662;2022-09-13T04:26:55;0.60;;;0.60;;
31378;SDS011;61664;48.112;11.662;2022-09-13T04:29:23;0.65;;;0.65;;
31378;SDS011;61664;48.112;11.662;2022-09-13T04:31:51;2.10;;;0.70;;
31378;SDS011;61664;48.112;11.662;2022-09-13T04:34:20;1.30;;;0.80;;
31378;SDS011;61664;48.112;11.662;2022-09-13T04:36:49;0.77;;;0.77;;
31378;SDS011;61664;48.112;11.662;2022-09-13T04:39:18;0.77;;;0.75;;
31378;SDS011;61664;48.112;11.662;2022-09-13T04:41:47;0.77;;;0.68;;
31378;SDS011;61664;48.112;11.662;2022-09-13T04:44:15;0.88;;;0.70;;
31378;SDS011;61664;48.112;11.662;2022-09-13T04:46:45;0.77;;;0.77;;
31378;SDS011;61664;48.112;11.662;2022-09-13T04:49:14;0.52;;;0.52;;
31378;SDS011;61664;48.112;11.662;2022-09-13T04:51:43;0.80;;;0.80;;
31378;SDS011;61664;48.112;11.662;2022-09-13T04:54:10;0.65;;;0.63;;
31378;SDS011;61664;48.112;11.662;2022-09-13T04:56:41;1.05;;;0.93;;
31378;SDS011;61664;48.112;11.662;2022-09-13T04:59:11;2.60;;;0.70;;
31378;SDS011;61664;48.112;11.662;2022-09-13T05:01:38;0.73;;;0.73;;
31378;SDS011;61664;48.112;11.662;2022-09-13T05:04:07;0.60;;;0.60;;
31378;SDS011;61664;48.112;11.662;2022-09-13T05:06:35;3.03;;;0.80;;
31378;SDS011;61664;48.112;11.662;2022-09-13T05:09:02;1.67;;;0.80;;
31378;SDS011;61664;48.112;11.662;2022-09-13T05:11:30;1.55;;;0.65;;
31378;SDS011;61664;48.112;11.662;2022-09-13T05:13:58;0.63;;;0.60;;
31378;SDS011;61664;48.112;11.662;2022-09-13T05:16:27;1.23;;;0.85;;
31378;SDS011;61664;48.112;11.662;2022-09-13T05:18:56;1.38;;;1.08;;
31378;SDS011;61664;48.112;11.662;2022-09-13T05:21:23;0.70;;;0.70;;
31378;SDS011;61664;48.112;11.662;2022-09-13T05:23:53;0.65;;;0.65;;
31378;SDS011;61664;48.112;11.662;2022-09-13T05:26:22;1.60;;;0.50;;
31378;SDS011;61664;48.112;11.662;2022-09-13T05:28:54;1.45;;;0.60;;
31378;SDS011;61664;48.112;11.662;2022-09-13T05:31:22;1.40;;;0.90;;
31378;SDS011;61664;48.112;11.662;2022-09-13T05:33:54;3.55;;;0.75;;
31378;SDS011;61664;48.112;11.662;2022-09-13T05:36:25;2.53;;;0.80;;
31378;SDS011;61664;48.112;11.662;2022-09-13T05:38:52;1.95;;;0.88;;
31378;SDS011;61664;48.112;11.662;2022-09-13T05:41:40;1.75;;;1.08;;
31378;SDS011;61664;48.112;11.662;2022-09-13T05:44:07;0.65;;;0.65;;
31378;SDS011;61664;48.112;11.662;2022-09-13T05:46:38;2.58;;;1.00;;
31378;SDS011;61664;48.112;11.662;2022-09-13T05:49:07;3.17;;;1.23;;
31378;SDS011;61664;48.112;11.662;2022-09-13T05:51:34;1.63;;;0.80;;
31378;SDS011;61664;48.112;11.662;2022-09-13T05:54:01;1.23;;;0.60;;
31378;SDS011;61664;48.112;11.662;2022-09-13T05:56:29;0.98;;;0.90;;
31378;SDS011;61664;48.112;11.662;2022-09-13T05:58:57;2.42;;;0.63;;
31378;SDS011;61664;48.112;11.662;2022-09-13T06:01:25;1.58;;;0.70;;
31378;SDS011;61664;48.112;11.662;2022-09-13T06:03:55;1.80;;;0.90;;
31378;SDS011;61664;48.112;11.662;2022-09-13T06:06:24;2.05;;;0.90;;
31378;SDS011;61664;48.112;11.662;2022-09-13T06:08:52;1.88;;;1.00;;
31378;SDS011;61664;48.112;11.662;2022-09-13T06:11:21;1.15;;;0.60;;
31378;SDS011;61664;48.112;11.662;2022-09-13T06:13:50;0.75;;;0.75;;
31378;SDS011;61664;48.112;11.662;2022-09-13T06:16:18;3.22;;;1.98;;
31378;SDS011;61664;48.112;11.662;2022-09-13T06:18:46;2.50;;;0.73;;
31378;SDS011;61664;48.112;11.662;2022-09-13T06:21:15;0.88;;;0.77;;
31378;SDS011;61664;48.112;11.662;2022-09-13T06:23:52;1.92;;;1.13;;
31378;SDS011;61664;48.112;11.662;2022-09-13T06:26:21;0.88;;;0.52;;
31378;SDS011;61664;48.112;11.662;2022-09-13T06:28:54;6.68;;;1.02;;
31378;SDS011;61664;48.112;11.662;2022-09-13T06:31:24;1.38;;;0.82;;
31378;SDS011;61664;48.112;11.662;2022-09-13T06:33:57;0.70;;;0.60;;
31378;SDS011;61664;48.112;11.662;2022-09-13T06:36:28;0.50;;;0.50;;
31378;SDS011;61664;48.112;11.662;2022-09-13T06:38:56;4.10;;;0.77;;
31378;SDS011;61664;48.112;11.662;2022-09-13T06:41:25;2.65;;;0.60;;
31378;SDS011;61664;48.112;11.662;2022-09-13T06:43:53;0.50;;;0.50;;
31378;SDS011;61664;48.112;11.662;2022-09-13T06:46:25;3.83;;;1.02;;
31378;SDS011;61664;48.112;11.662;2022-09-13T06:48:54;1.25;;;0.60;;
31378;SDS011;61664;48.112;11.662;2022-09-13T06:51:29;11.13;;;0.88;;
31378;SDS011;61664;48.112;11.662;2022-09-13T06:53:57;0.80;;;0.70;;
31378;SDS011;61664;48.112;11.662;2022-09-13T06:56:26;1.00;;;0.90;;
31378;SDS011;61664;48.112;11.662;2022-09-13T06:59:00;1.00;;;0.60;;
31378;SDS011;61664;48.112;11.662;2022-09-13T07:01:31;1.10;;;0.52;;
31378;SDS011;61664;48.112;11.662;2022-09-13T07:04:07;2.45;;;0.82;;
31378;SDS011;61664;48.112;11.662;2022-09-13T07:06:37;1.25;;;0.70;;
31378;SDS011;61664;48.112;11.662;2022-09-13T07:09:10;0.57;;;0.57;;
31378;SDS011;61664;48.112;11.662;2022-09-13T07:11:42;2.40;;;0.75;;
31378;SDS011;61664;48.112;11.662;2022-09-13T07:14:12;0.95;;;0.63;;
31378;SDS011;61664;48.112;11.662;2022-09-13T07:16:42;3.22;;;0.82;;
31378;SDS011;61664;48.112;11.662;2022-09-13T07:19:13;2.30;;;0.70;;
31378;SDS011;61664;48.112;11.662;2022-09-13T07:21:49;0.77;;;0.77;;
31378;SDS011;61664;48.112;11.662;2022-09-13T07:24:16;2.78;;;0.70;;
31378;SDS011;61664;48.112;11.662;2022-09-13T07:26:45;6.20;;;0.93;;
31378;SDS011;61664;48.112;11.662;2022-09-13T07:29:13;0.60;;;0.57;;
31378;SDS011;61664;48.112;11.662;2022-09-13T07:31:45;0.82;;;0.60;;
31378;SDS011;61664;48.112;11.662;2022-09-13T07:34:16;0.77;;;0.50;;
31378;SDS011;61664;48.112;11.662;2022-09-13T07:36:45;2.33;;;0.52;;
31378;SDS011;61664;48.112;11.662;2022-09-13T07:39:14;0.75;;;0.75;;
31378;SDS011;61664;48.112;11.662;2022-09-13T07:41:48;1.10;;;0.50;;
31378;SDS011;61664;48.112;11.662;2022-09-13T07:44:15;1.17;;;0.52;;
31378;SDS011;61664;48.112;11.662;2022-09-13T07:46:42;0.75;;;0.68;;
31378;SDS011;61664;48.112;11.662;2022-09-13T07:49:10;1.15;;;0.60;;
31378;SDS011;61664;48.112;11.662;2022-09-13T07:51:41;0.57;;;0.50;;
31378;SDS011;61664;48.112;11.662;2022-09-13T07:54:13;1.30;;;0.65;;
31378;SDS011;61664;48.112;11.662;2022-09-13T07:56:43;0.60;;;0.50;;
31378;SDS011;61664;48.112;11.662;2022-09-13T07:59:12;1.45;;;0.50;;
31378;SDS011;61664;48.112;11.662;2022-09-13T08:01:42;0.63;;;0.50;;
31378;SDS011;61664;48.112;11.662;2022-09-13T08:04:16;2.88;;;0.50;;
31378;SDS011;61664;48.112;11.662;2022-09-13T08:06:46;1.33;;;0.40;;
31378;SDS011;61664;48.112;11.662;2022-09-13T08:09:13;0.50;;;0.40;;
31378;SDS011;61664;48.112;11.662;2022-09-13T08:11:42;0.75;;;0.47;;
31378;SDS011;61664;48.112;11.662;2022-09-13T08:14:13;0.68;;;0.68;;
31378;SDS011;61664;48.112;11.662;2022-09-13T08:16:42;0.47;;;0.38;;
31378;SDS011;61664;48.112;11.662;2022-09-13T08:19:10;0.28;;;0.28;;
31378;SDS011;61664;48.112;11.662;2022-09-13T08:21:41;0.28;;;0.28;;
31378;SDS011;61664;48.112;11.662;2022-09-13T08:26:43;0.57;;;0.30;;
31378;SDS011;61664;48.112;11.662;2022-09-13T08:29:12;0.30;;;0.30;;
31378;SDS011;61664;48.112;11.662;2022-09-13T08:31:41;0.40;;;0.28;;
31378;SDS011;61664;48.112;11.662;2022-09-13T08:34:11;0.40;;;0.40;;
31378;SDS011;61664;48.112;11.662;2022-09-13T08:36:40;0.20;;;0.20;;
31378;SDS011;61664;48.112;11.662;2022-09-13T08:39:08;0.20;;;0.17;;
31378;SDS011;61664;48.112;11.662;2022-09-13T08:44:07;1.23;;;0.30;;
31378;SDS011;61664;48.112;11.662;2022-09-13T08:46:36;0.20;;;0.20;;
31378;SDS011;61664;48.112;11.662;2022-09-13T08:51:58;0.95;;;0.80;;
31378;SDS011;61664;48.112;11.662;2022-09-13T08:54:41;0.30;;;0.20;;
31378;SDS011;61664;48.112;11.662;2022-09-13T08:57:12;0.22;;;0.22;;
31378;SDS011;61664;48.112;11.662;2022-09-13T09:08:32;0.40;;;0.40;;
31378;SDS011;61664;48.112;11.662;2022-09-13T09:17:12;0.40;;;0.30;;
31378;SDS011;61664;48.112;11.662;2022-09-13T09:19:51;0.30;;;0.20;;
31378;SDS011;61664;48.112;11.662;2022-09-13T09:22:31;0.20;;;0.20;;
31378;SDS011;61664;48.112;11.662;2022-09-13T09:25:00;1.48;;;0.30;;
31378;SDS011;61664;48.112;11.662;2022-09-13T09:27:29;3.00;;;0.20;;
31378;SDS011;61664;48.112;11.662;2022-09-13T09:29:57;0.82;;;0.30;;
31378;SDS011;61664;48.112;11.662;2022-09-13T09:38:35;0.38;;;0.30;;
31378;SDS011;61664;48.112;11.662;2022-09-13T09:41:13;0.50;;;0.38;;
31378;SDS011;61664;48.112;11.662;2022-09-13T09:44:17;0.30;;;0.30;;
31378;SDS011;61664;48.112;11.662;2022-09-13T09:49:58;0.40;;;0.40;;
31378;SDS011;61664;48.112;11.662;2022-09-13T09:58:50;0.50;;;0.30;;
31378;SDS011;61664;48.112;11.662;2022-09-13T10:04:37;2.92;;;0.40;;
31378;SDS011;61664;48.112;11.662;2022-09-13T10:06:41;2.20;;;2.10;;
31378;SDS011;61664;48.112;11.662;2022-09-13T10:09:14;1.17;;;0.70;;
31378;SDS011;61664;48.112;11.662;2022-09-13T10:14:34;3.20;;;0.20;;
31378;SDS011;61664;48.112;11.662;2022-09-13T10:19:56;0.30;;;0.30;;
31378;SDS011;61664;48.112;11.662;2022-09-13T10:22:30;0.40;;;0.10;;
31378;SDS011;61664;48.112;11.662;2022-09-13T10:28:02;0.25;;;0.25;;
31378;SDS011;61664;48.112;11.662;2022-09-13T10:30:37;0.20;;;0.20;;
31378;SDS011;61664;48.112;11.662;2022-09-13T10:33:22;0.20;;;0.20;;
31378;SDS011;61664;48.112;11.662;2022-09-13T10:36:43;0.80;;;0.20;;
31378;SDS011;61664;48.112;11.662;2022-09-13T10:39:23;0.40;;;0.28;;
31378;SDS011;61664;48.112;11.662;2022-09-13T10:41:55;0.15;;;0.15;;
31378;SDS011;61664;48.112;11.662;2022-09-13T10:47:05;0.30;;;0.25;;
31378;SDS011;61664;48.112;11.662;2022-09-13T10:49:50;0.40;;;0.40;;
31378;SDS011;61664;48.112;11.662;2022-09-13T10:52:34;0.50;;;0.40;;
31378;SDS011;61664;48.112;11.662;2022-09-13T10:55:17;0.50;;;0.50;;
31378;SDS011;61664;48.112;11.662;2022-09-13T11:00:36;0.70;;;0.30;;
31378;SDS011;61664;48.112;11.662;2022-09-13T11:06:01;0.50;;;0.50;;
31378;SDS011;61664;48.112;11.662;2022-09-13T11:17:26;0.20;;;0.20;;
31378;SDS011;61664;48.112;11.662;2022-09-13T11:26:36;2.78;;;2.58;;
31378;SDS011;61664;48.112;11.662;2022-09-13T11:41:52;0.20;;;0.20;;
31378;SDS011;61664;48.112;11.662;2022-09-13T11:44:29;1.00;;;0.90;;
31378;SDS011;61664;48.112;11.662;2022-09-13T11:55:53;0.30;;;0.28;;
31378;SDS011;61664;48.112;11.662;2022-09-13T11:58:38;0.40;;;0.25;;
31378;SDS011;61664;48.112;11.662;2022-09-13T12:01:33;0.20;;;0.20;;
31378;SDS011;61664;48.112;11.662;2022-09-13T12:04:24;1.60;;;0.40;;
31378;SDS011;61664;48.112;11.662;2022-09-13T12:07:00;0.22;;;0.22;;
31378;SDS011;61664;48.112;11.662;2022-09-13T12:09:45;0.20;;;0.20;;
31378;SDS011;61664;48.112;11.662;2022-09-13T12:12:20;0.55;;;0.32;;
31378;SDS011;61664;48.112;11.662;2022-09-13T12:15:13;0.32;;;0.32;;
31378;SDS011;61664;48.112;11.662;2022-09-13T12:18:01;0.30;;;0.20;;
31378;SDS011;61664;48.112;11.662;2022-09-13T12:23:20;0.45;;;0.30;;
31378;SDS011;61664;48.112;11.662;2022-09-13T12:26:20;0.20;;;0.20;;
31378;SDS011;61664;48.112;11.662;2022-09-13T12:29:00;2.45;;;0.20;;
31378;SDS011;61664;48.112;11.662;2022-09-13T12:31:42;0.25;;;0.20;;
31378;SDS011;61664;48.112;11.662;2022-09-13T12:34:23;0.30;;;0.20;;
31378;SDS011;61664;48.112;11.662;2022-09-13T12:37:10;0.20;;;0.20;;
31378;SDS011;61664;48.112;11.662;2022-09-13T12:40:13;0.55;;;0.20;;
31378;SDS011;61664;48.112;11.662;2022-09-13T12:43:00;1.30;;;0.40;;
31378;SDS011;61664;48.112;11.662;2022-09-13T12:48:53;0.30;;;0.20;;
31378;SDS011;61664;48.112;11.662;2022-09-13T13:04:19;0.10;;;0.10;;
31378;SDS011;61664;48.112;11.662;2022-09-13T13:06:58;1.65;;;0.20;;
31378;SDS011;61664;48.112;11.662;2022-09-13T13:12:09;1.85;;;0.20;;
31378;SDS011;61664;48.112;11.662;2022-09-13T13:14:51;0.40;;;0.20;;
31378;SDS011;61664;48.112;11.662;2022-09-13T13:17:35;0.32;;;0.20;;
31378;SDS011;61664;48.112;11.662;2022-09-13T13:23:27;0.25;;;0.20;;
31378;SDS011;61664;48.112;11.662;2022-09-13T13:45:04;1.13;;;0.20;;
31378;SDS011;61664;48.112;11.662;2022-09-13T13:47:52;0.20;;;0.20;;
31378;SDS011;61664;48.112;11.662;2022-09-13T13:50:34;0.20;;;0.20;;
31378;SDS011;61664;48.112;11.662;2022-09-13T13:53:51;0.10;;;0.10;;
31378;SDS011;61664;48.112;11.662;2022-09-13T13:59:02;0.10;;;0.10;;
31378;SDS011;61664;48.112;11.662;2022-09-13T14:01:46;0.17;;;0.10;;
31378;SDS011;61664;48.112;11.662;2022-09-13T14:14:07;0.25;;;0.13;;
31378;SDS011;61664;48.112;11.662;2022-09-13T14:22:42;0.10;;;0.10;;
31378;SDS011;61664;48.112;11.662;2022-09-13T14:27:48;0.10;;;0.10;;
31378;SDS011;61664;48.112;11.662;2022-09-13T14:35:31;0.43;;;0.10;;
31378;SDS011;61664;48.112;11.662;2022-09-13T14:40:51;0.52;;;0.17;;
31378;SDS011;61664;48.112;11.662;2022-09-13T14:43:24;0.13;;;0.10;;
31378;SDS011;61664;48.112;11.662;2022-09-13T14:48:56;0.10;;;0.10;;
31378;SDS011;61664;48.112;11.662;2022-09-13T14:51:31;0.20;;;0.20;;
31378;SDS011;61664;48.112;11.662;2022-09-13T14:54:14;0.50;;;0.30;;
31378;SDS011;61664;48.112;11.662;2022-09-13T14:56:59;0.77;;;0.60;;
31378;SDS011;61664;48.112;11.662;2022-09-13T15:04:58;0.17;;;0.17;;
31378;SDS011;61664;48.112;11.662;2022-09-13T15:07:33;0.90;;;0.10;;
31378;SDS011;61664;48.112;11.662;2022-09-13T15:18:00;0.20;;;0.20;;
31378;SDS011;61664;48.112;11.662;2022-09-13T15:20:48;0.13;;;0.13;;
31378;SDS011;61664;48.112;11.662;2022-09-13T15:23:31;0.20;;;0.20;;
31378;SDS011;61664;48.112;11.662;2022-09-13T15:26:07;0.10;;;0.10;;
31378;SDS011;61664;48.112;11.662;2022-09-13T15:31:24;0.57;;;0.20;;
31378;SDS011;61664;48.112;11.662;2022-09-13T15:34:09;0.22;;;0.20;;
31378;SDS011;61664;48.112;11.662;2022-09-13T15:36:43;0.15;;;0.15;;
31378;SDS011;61664;48.112;11.662;2022-09-13T15:39:14;0.32;;;0.30;;
31378;SDS011;61664;48.112;11.662;2022-09-13T15:41:50;2.45;;;0.17;;
31378;SDS011;61664;48.112;11.662;2022-09-13T15:44:20;0.38;;;0.10;;
31378;SDS011;61664;48.112;11.662;2022-09-13T15:47:21;0.20;;;0.20;;
31378;SDS011;61664;48.112;11.662;2022-09-13T15:50:30;0.20;;;0.20;;
31378;SDS011;61664;48.112;11.662;2022-09-13T15:52:58;0.20;;;0.20;;
31378;SDS011;61664;48.112;11.662;2022-09-13T15:55:26;0.10;;;0.10;;
31378;SDS011;61664;48.112;11.662;2022-09-13T15:57:55;0.20;;;0.20;;
31378;SDS011;61664;48.112;11.662;2022-09-13T16:00:22;0.30;;;0.20;;
31378;SDS011;61664;48.112;11.662;2022-09-13T16:02:53;1.17;;;0.28;;
31378;SDS011;61664;48.112;11.662;2022-09-13T16:05:20;0.30;;;0.25;;
31378;SDS011;61664;48.112;11.662;2022-09-13T16:07:47;0.30;;;0.30;;
31378;SDS011;61664;48.112;11.662;2022-09-13T16:10:20;0.20;;;0.20;;
31378;SDS011;61664;48.112;11.662;2022-09-13T16:12:48;0.20;;;0.20;;
31378;SDS011;61664;48.112;11.662;2022-09-13T16:15:15;0.45;;;0.28;;
31378;SDS011;61664;48.112;11.662;2022-09-13T16:17:42;0.40;;;0.28;;
31378;SDS011;61664;48.112;11.662;2022-09-13T16:20:11;0.75;;;0.45;;
31378;SDS011;61664;48.112;11.662;2022-09-13T16:22:39;0.20;;;0.20;;
31378;SDS011;61664;48.112;11.662;2022-09-13T16:25:08;1.27;;;0.43;;
31378;SDS011;61664;48.112;11.662;2022-09-13T16:27:38;0.22;;;0.20;;
31378;SDS011;61664;48.112;11.662;2022-09-13T16:30:10;2.20;;;0.32;;
31378;SDS011;61664;48.112;11.662;2022-09-13T16:32:43;0.68;;;0.40;;
31378;SDS011;61664;48.112;11.662;2022-09-13T16:35:11;0.28;;;0.28;;
31378;SDS011;61664;48.112;11.662;2022-09-13T16:37:39;2.60;;;0.70;;
31378;SDS011;61664;48.112;11.662;2022-09-13T16:40:06;4.95;;;1.88;;
31378;SDS011;61664;48.112;11.662;2022-09-13T16:42:35;3.83;;;1.58;;
31378;SDS011;61664;48.112;11.662;2022-09-13T16:45:02;7.47;;;2.80;;
31378;SDS011;61664;48.112;11.662;2022-09-13T16:47:30;3.13;;;0.77;;
31378;SDS011;61664;48.112;11.662;2022-09-13T16:49:57;5.68;;;1.65;;
31378;SDS011;61664;48.112;11.662;2022-09-13T16:52:24;10.05;;;2.63;;
31378;SDS011;61664;48.112;11.662;2022-09-13T16:54:51;4.25;;;1.63;;
31378;SDS011;61664;48.112;11.662;2022-09-13T16:57:18;2.65;;;1.33;;
31378;SDS011;61664;48.112;11.662;2022-09-13T16:59:45;0.80;;;0.80;;
31378;SDS011;61664;48.112;11.662;2022-09-13T17:02:13;2.20;;;0.70;;
31378;SDS011;61664;48.112;11.662;2022-09-13T17:04:40;0.57;;;0.30;;
31378;SDS011;61664;48.112;11.662;2022-09-13T17:07:07;0.52;;;0.50;;
31378;SDS011;61664;48.112;11.662;2022-09-13T17:09:34;2.00;;;0.50;;
31378;SDS011;61664;48.112;11.662;2022-09-13T17:12:01;0.90;;;0.50;;
31378;SDS011;61664;48.112;11.662;2022-09-13T17:14:29;1.83;;;0.50;;
31378;SDS011;61664;48.112;11.662;2022-09-13T17:16:56;0.55;;;0.55;;
31378;SDS011;61664;48.112;11.662;2022-09-13T17:19:25;1.00;;;0.50;;
31378;SDS011;61664;48.112;11.662;2022-09-13T17:22:01;0.73;;;0.50;;
31378;SDS011;61664;48.112;11.662;2022-09-13T17:24:33;0.50;;;0.50;;
31378;SDS011;61664;48.112;11.662;2022-09-13T17:27:00;1.08;;;0.50;;
31378;SDS011;61664;48.112;11.662;2022-09-13T17:29:27;1.00;;;0.50;;
31378;SDS011;61664;48.112;11.662;2022-09-13T17:31:56;0.60;;;0.60;;
31378;SDS011;61664;48.112;11.662;2022-09-13T17:34:25;0.70;;;0.70;;
31378;SDS011;61664;48.112;11.662;2022-09-13T17:36:53;1.17;;;0.90;;
31378;SDS011;61664;48.112;11.662;2022-09-13T17:39:20;1.08;;;0.70;;
31378;SDS011;61664;48.112;11.662;2022-09-13T17:41:47;1.30;;;0.77;;
31378;SDS011;61664;48.112;11.662;2022-09-13T17:44:14;1.55;;;1.02;;
31378;SDS011;61664;48.112;11.662;2022-09-13T17:46:42;1.02;;;0.90;;
31378;SDS011;61664;48.112;11.662;2022-09-13T17:49:09;1.00;;;0.77;;
31378;SDS011;61664;48.112;11.662;2022-09-13T17:51:36;1.50;;;1.40;;
31378;SDS011;61664;48.112;11.662;2022-09-13T17:54:04;4.00;;;2.80;;
31378;SDS011;61664;48.112;11.662;2022-09-13T17:56:36;4.22;;;3.80;;
31378;SDS011;61664;48.112;11.662;2022-09-13T17:59:09;3.38;;;3.17;;
31378;SDS011;61664;48.112;11.662;2022-09-13T18:01:40;4.22;;;3.92;;
31378;SDS011;61664;48.112;11.662;2022-09-13T18:04:10;4.15;;;3.85;;
31378;SDS011;61664;48.112;11.662;2022-09-13T18:06:39;4.45;;;4.15;;
31378;SDS011;61664;48.112;11.662;2022-09-13T18:09:07;3.90;;;3.60;;
31378;SDS011;61664;48.112;11.662;2022-09-13T18:11:36;4.10;;;3.80;;
31378;SDS011;61664;48.112;11.662;2022-09-13T18:14:03;3.60;;;3.25;;
31378;SDS011;61664;48.112;11.662;2022-09-13T18:16:31;4.03;;;3.60;;
31378;SDS011;61664;48.112;11.662;2022-09-13T18:18:59;3.22;;;3.03;;
31378;SDS011;61664;48.112;11.662;2022-09-13T18:21:26;2.90;;;2.45;;
31378;SDS011;61664;48.112;11.662;2022-09-13T18:23:56;2.15;;;2.05;;
31378;SDS011;61664;48.112;11.662;2022-09-13T18:26:25;2.22;;;2.13;;
31378;SDS011;61664;48.112;11.662;2022-09-13T18:28:55;2.38;;;2.17;;
31378;SDS011;61664;48.112;11.662;2022-09-13T18:31:27;2.38;;;1.60;;
31378;SDS011;61664;48.112;11.662;2022-09-13T18:33:57;4.22;;;1.67;;
31378;SDS011;61664;48.112;11.662;2022-09-13T18:36:27;1.50;;;1.40;;
31378;SDS011;61664;48.112;11.662;2022-09-13T18:38:58;1.48;;;1.20;;
31378;SDS011;61664;48.112;11.662;2022-09-13T18:41:35;1.90;;;1.65;;
31378;SDS011;61664;48.112;11.662;2022-09-13T18:44:06;2.03;;;1.00;;
31378;SDS011;61664;48.112;11.662;2022-09-13T18:46:35;0.70;;;0.70;;
31378;SDS011;61664;48.112;11.662;2022-09-13T18:49:04;1.52;;;1.23;;
31378;SDS011;61664;48.112;11.662;2022-09-13T18:51:33;2.22;;;1.02;;
31378;SDS011;61664;48.112;11.662;2022-09-13T18:54:04;2.03;;;1.20;;
31378;SDS011;61664;48.112;11.662;2022-09-13T18:56:33;0.80;;;0.80;;
31378;SDS011;61664;48.112;11.662;2022-09-13T18:59:02;1.48;;;1.10;;
31378;SDS011;61664;48.112;11.662;2022-09-13T19:01:32;1.30;;;0.98;;
31378;SDS011;61664;48.112;11.662;2022-09-13T19:04:07;3.67;;;1.48;;
31378;SDS011;61664;48.112;11.662;2022-09-13T19:06:42;1.40;;;1.13;;
31378;SDS011;61664;48.112;11.662;2022-09-13T19:09:22;2.08;;;0.80;;
31378;SDS011;61664;48.112;11.662;2022-09-13T19:11:50;2.42;;;1.15;;
31378;SDS011;61664;48.112;11.662;2022-09-13T19:14:25;1.13;;;1.02;;
31378;SDS011;61664;48.112;11.662;2022-09-13T19:16:55;1.42;;;1.33;;
31378;SDS011;61664;48.112;11.662;2022-09-13T19:19:26;2.47;;;1.10;;
31378;SDS011;61664;48.112;11.662;2022-09-13T19:21:53;1.45;;;1.35;;
31378;SDS011;61664;48.112;11.662;2022-09-13T19:24:20;1.60;;;1.02;;